53.1°F
Current conditions from King Hill
Updated every 5 minutes
 
  Thursday October 2, 2014

Station Historical Data
Daily Summary for April 27, 2012 Units:  English    Metric   Both
« Previous Day
Next Day »
Daily Weekly Monthly Yearly Custom
  High: Low: Average:
Temperature: 45.4 °F 28.8 °F 34.5 °F
Dew Point: 43.9 °F 19.7 °F 28.8 °F
Humidity: 95% 66% 80%
Wind Speed: 16.0mph 1.0mph 8mph
Wind Gust: 27.0mph - -
Wind- - NW
Pressure: 30.07 in 29.50 in -
Precipitation: 0.27 in    
Historical Graphs
 
 
Tabular Data for April 27, 2012
Time Temperature Dew Point Pressure Wind Wind Speed Wind Gust Humidity Daily Rainfall
00:04 45.1 °F 43.5 °F 29.50 in SSW 2.0 mph 6.0 mph 94% 0.00 in
00:09 45.1 °F 43.5 °F 29.50 in SSW 2.0 mph 6.0 mph 94% 0.00 in
00:14 45.1 °F 43.5 °F 29.50 in SSW 2.0 mph 5.0 mph 94% 0.01 in
00:19 45.1 °F 43.5 °F 29.50 in Calm   7.0 mph 94% 0.01 in
00:24 45.1 °F 43.5 °F 29.50 in Calm   7.0 mph 94% 0.01 in
00:29 45.1 °F 43.5 °F 29.51 in Calm   7.0 mph 94% 0.01 in
00:34 45.1 °F 43.5 °F 29.51 in WSW 1.0 mph 7.0 mph 94% 0.01 in
00:39 45.2 °F 43.6 °F 29.51 in Calm   5.0 mph 94% 0.01 in
00:49 45.3 °F 43.7 °F 29.51 in Calm   6.0 mph 94% 0.03 in
00:54 45.4 °F 43.8 °F 29.51 in WSW 1.0 mph 4.0 mph 94% 0.03 in
00:59 45.4 °F 43.8 °F 29.51 in WNW 2.0 mph 7.0 mph 94% 0.03 in
01:04 45.4 °F 43.8 °F 29.51 in WNW 3.0 mph 7.0 mph 94% 0.05 in
01:09 45.3 °F 43.7 °F 29.51 in WNW 2.0 mph 7.0 mph 94% 0.07 in
01:14 45.2 °F 43.9 °F 29.51 in NW 2.0 mph 7.0 mph 95% 0.09 in
01:19 45.1 °F 43.8 °F 29.52 in WNW 6.0 mph 10.0 mph 95% 0.10 in
01:24 45.1 °F 43.8 °F 29.51 in WNW 5.0 mph 10.0 mph 95% 0.11 in
01:29 45.0 °F 43.7 °F 29.52 in WNW 3.0 mph 10.0 mph 95% 0.12 in
01:34 44.8 °F 43.2 °F 29.52 in NW 5.0 mph 10.0 mph 94% 0.13 in
01:39 44.4 °F 42.8 °F 29.52 in WNW 7.0 mph 13.0 mph 94% 0.15 in
01:44 44.2 °F 42.6 °F 29.52 in NW 4.0 mph 13.0 mph 94% 0.15 in
01:49 44.0 °F 42.4 °F 29.52 in NW 3.0 mph 15.0 mph 94% 0.15 in
01:54 43.8 °F 42.2 °F 29.52 in NW 7.0 mph 15.0 mph 94% 0.15 in
01:59 43.8 °F 42.2 °F 29.52 in WNW 6.0 mph 15.0 mph 94% 0.15 in
02:04 43.7 °F 42.1 °F 29.52 in NW 8.0 mph 15.0 mph 94% 0.15 in
02:09 43.6 °F 42.0 °F 29.52 in WNW 8.0 mph 14.0 mph 94% 0.15 in
02:14 43.5 °F 41.9 °F 29.52 in NW 6.0 mph 14.0 mph 94% 0.15 in
02:25 43.0 °F 41.4 °F 29.52 in WNW 7.0 mph 15.0 mph 94% 0.15 in
02:34 42.3 °F 40.4 °F 29.53 in WNW 7.0 mph 19.0 mph 93% 0.15 in
02:39 42.1 °F 40.2 °F 29.53 in WNW 4.0 mph 15.0 mph 93% 0.15 in
02:44 41.9 °F 39.5 °F 29.53 in WNW 7.0 mph 11.0 mph 91% 0.15 in
02:49 41.9 °F 39.2 °F 29.53 in WNW 6.0 mph 11.0 mph 90% 0.15 in
02:54 41.8 °F 38.8 °F 29.54 in Calm   12.0 mph 89% 0.15 in
02:59 41.7 °F 38.7 °F 29.54 in NW 3.0 mph 12.0 mph 89% 0.15 in
03:04 41.5 °F 38.5 °F 29.54 in NW 5.0 mph 13.0 mph 89% 0.15 in
03:09 41.3 °F 38.0 °F 29.55 in WNW 7.0 mph 14.0 mph 88% 0.15 in
03:14 41.1 °F 37.8 °F 29.55 in NW 5.0 mph 14.0 mph 88% 0.15 in
03:19 40.5 °F 37.2 °F 29.56 in WNW 8.0 mph 15.0 mph 88% 0.16 in
03:24 39.9 °F 36.6 °F 29.56 in NW 9.0 mph 16.0 mph 88% 0.16 in
03:29 39.5 °F 36.2 °F 29.56 in NW 8.0 mph 20.0 mph 88% 0.16 in
03:34 39.2 °F 35.9 °F 29.56 in WNW 6.0 mph 20.0 mph 88% 0.16 in
03:39 39.0 °F 36.0 °F 29.56 in NW 6.0 mph 13.0 mph 89% 0.16 in
03:44 38.8 °F 35.8 °F 29.57 in WNW 9.0 mph 17.0 mph 89% 0.16 in
03:49 38.6 °F 35.6 °F 29.57 in WNW 8.0 mph 17.0 mph 89% 0.16 in
03:54 38.6 °F 35.6 °F 29.57 in NW 9.0 mph 18.0 mph 89% 0.16 in
03:59 38.4 °F 35.4 °F 29.57 in NW 6.0 mph 18.0 mph 89% 0.16 in
04:04 38.3 °F 35.3 °F 29.57 in NW 6.0 mph 18.0 mph 89% 0.16 in
04:09 38.3 °F 35.6 °F 29.57 in NW 7.0 mph 13.0 mph 90% 0.16 in
04:14 38.2 °F 35.5 °F 29.57 in WNW 7.0 mph 13.0 mph 90% 0.16 in
04:19 38.1 °F 35.1 °F 29.57 in NW 8.0 mph 14.0 mph 89% 0.16 in
04:25 38.0 °F 35.0 °F 29.57 in WNW 6.0 mph 18.0 mph 89% 0.16 in
04:34 37.8 °F 35.1 °F 29.58 in WNW 6.0 mph 15.0 mph 90% 0.16 in
04:44 37.7 °F 34.8 °F 29.58 in WNW 7.0 mph 14.0 mph 89% 0.16 in
04:49 37.6 °F 34.7 °F 29.58 in NW 9.0 mph 15.0 mph 89% 0.16 in
04:54 37.5 °F 34.6 °F 29.58 in NW 6.0 mph 15.0 mph 89% 0.16 in
04:59 37.3 °F 34.4 °F 29.58 in NW 7.0 mph 14.0 mph 89% 0.16 in
05:04 37.2 °F 34.3 °F 29.58 in NW 6.0 mph 14.0 mph 89% 0.17 in
05:09 37.1 °F 34.2 °F 29.59 in NW 9.0 mph 19.0 mph 89% 0.17 in
05:14 36.8 °F 33.9 °F 29.59 in NW 9.0 mph 21.0 mph 89% 0.17 in
05:19 36.8 °F 33.9 °F 29.59 in NW 7.0 mph 21.0 mph 89% 0.18 in
05:24 36.6 °F 33.7 °F 29.59 in NW 6.0 mph 17.0 mph 89% 0.18 in
05:29 36.4 °F 33.5 °F 29.59 in NW 8.0 mph 17.0 mph 89% 0.19 in
05:34 36.4 °F 33.5 °F 29.59 in NW 7.0 mph 16.0 mph 89% 0.19 in
05:39 36.3 °F 33.4 °F 29.59 in NW 9.0 mph 16.0 mph 89% 0.19 in
05:44 36.3 °F 33.7 °F 29.60 in WNW 6.0 mph 16.0 mph 90% 0.20 in
05:49 36.2 °F 33.6 °F 29.60 in NW 10.0 mph 17.0 mph 90% 0.20 in
05:54 36.0 °F 33.1 °F 29.60 in NW 8.0 mph 17.0 mph 89% 0.21 in
05:59 36.1 °F 33.2 °F 29.60 in NW 10.0 mph 18.0 mph 89% 0.21 in
06:04 36.0 °F 33.1 °F 29.61 in NW 8.0 mph 18.0 mph 89% 0.21 in
06:09 36.0 °F 33.4 °F 29.61 in NW 7.0 mph 16.0 mph 90% 0.21 in
06:14 35.8 °F 33.2 °F 29.61 in NW 11.0 mph 19.0 mph 90% 0.21 in
06:19 35.6 °F 32.7 °F 29.61 in NW 12.0 mph 20.0 mph 89% 0.22 in
06:24 35.4 °F 32.5 °F 29.61 in NW 10.0 mph 20.0 mph 89% 0.22 in
06:29 35.3 °F 32.4 °F 29.61 in NW 4.0 mph 18.0 mph 89% 0.22 in
06:34 35.1 °F 32.2 °F 29.61 in NW 6.0 mph 18.0 mph 89% 0.22 in
06:39 35.0 °F 32.1 °F 29.62 in NW 7.0 mph 18.0 mph 89% 0.22 in
06:44 34.8 °F 31.9 °F 29.62 in WNW 6.0 mph 18.0 mph 89% 0.22 in
06:49 34.6 °F 31.7 °F 29.63 in WNW 8.0 mph 18.0 mph 89% 0.22 in
06:54 34.4 °F 31.2 °F 29.63 in NW 6.0 mph 17.0 mph 88% 0.22 in
06:59 34.4 °F 31.2 °F 29.63 in NW 7.0 mph 17.0 mph 88% 0.22 in
07:04 34.2 °F 31.0 °F 29.64 in WNW 11.0 mph 17.0 mph 88% 0.22 in
07:09 34.0 °F 30.5 °F 29.64 in WNW 7.0 mph 16.0 mph 87% 0.22 in
07:14 33.8 °F 30.3 °F 29.64 in NW 6.0 mph 19.0 mph 87% 0.22 in
07:19 33.7 °F 30.2 °F 29.64 in NW 8.0 mph 19.0 mph 87% 0.22 in
07:24 33.5 °F 30.0 °F 29.64 in NW 10.0 mph 18.0 mph 87% 0.22 in
07:29 33.5 °F 29.8 °F 29.65 in NW 6.0 mph 18.0 mph 86% 0.22 in
07:34 33.4 °F 29.7 °F 29.65 in WNW 13.0 mph 21.0 mph 86% 0.22 in
07:39 33.4 °F 29.1 °F 29.65 in WNW 11.0 mph 23.0 mph 84% 0.22 in
07:49 33.2 °F 28.9 °F 29.66 in NW 10.0 mph 24.0 mph 84% 0.22 in
07:54 33.1 °F 28.8 °F 29.66 in NW 12.0 mph 25.0 mph 84% 0.22 in
07:59 33.1 °F 28.8 °F 29.66 in WNW 11.0 mph 25.0 mph 84% 0.22 in
08:04 33.2 °F 28.9 °F 29.66 in NW 8.0 mph 25.0 mph 84% 0.22 in
08:09 33.1 °F 28.8 °F 29.67 in NW 14.0 mph 21.0 mph 84% 0.22 in
08:14 33.0 °F 28.7 °F 29.67 in NW 10.0 mph 21.0 mph 84% 0.22 in
08:19 32.9 °F 28.3 °F 29.67 in NW 11.0 mph 21.0 mph 83% 0.22 in
08:24 32.9 °F 28.3 °F 29.67 in NW 11.0 mph 19.0 mph 83% 0.22 in
08:29 32.8 °F 28.2 °F 29.68 in WNW 10.0 mph 22.0 mph 83% 0.22 in
08:39 32.8 °F 28.2 °F 29.68 in NW 9.0 mph 23.0 mph 83% 0.22 in
08:44 32.7 °F 27.8 °F 29.69 in NW 7.0 mph 18.0 mph 82% 0.22 in
08:49 32.7 °F 27.5 °F 29.69 in WNW 12.0 mph 18.0 mph 81% 0.22 in
08:54 32.7 °F 27.5 °F 29.69 in NW 6.0 mph 20.0 mph 81% 0.22 in
08:59 32.7 °F 27.5 °F 29.69 in NW 9.0 mph 20.0 mph 81% 0.22 in
09:04 32.7 °F 27.2 °F 29.69 in NW 8.0 mph 18.0 mph 80% 0.22 in
09:09 32.7 °F 27.2 °F 29.69 in NW 6.0 mph 18.0 mph 80% 0.22 in
09:14 32.6 °F 27.1 °F 29.69 in NW 7.0 mph 19.0 mph 80% 0.22 in
09:19 32.6 °F 27.1 °F 29.70 in NW 11.0 mph 20.0 mph 80% 0.22 in
09:24 32.7 °F 26.9 °F 29.70 in WNW 13.0 mph 20.0 mph 79% 0.22 in
09:34 32.8 °F 26.7 °F 29.69 in NW 12.0 mph 23.0 mph 78% 0.22 in
09:39 32.8 °F 26.4 °F 29.70 in NW 9.0 mph 23.0 mph 77% 0.22 in
09:44 32.9 °F 26.5 °F 29.70 in NW 9.0 mph 17.0 mph 77% 0.22 in
09:49 33.0 °F 26.6 °F 29.70 in WNW 12.0 mph 20.0 mph 77% 0.22 in
09:54 33.2 °F 26.8 °F 29.71 in NW 11.0 mph 22.0 mph 77% 0.22 in
09:59 33.2 °F 26.5 °F 29.71 in NW 11.0 mph 26.0 mph 76% 0.22 in
10:04 33.4 °F 27.0 °F 29.71 in WNW 9.0 mph 26.0 mph 77% 0.22 in
10:09 33.4 °F 27.0 °F 29.71 in NW 14.0 mph 26.0 mph 77% 0.22 in
10:14 33.5 °F 27.1 °F 29.71 in WNW 7.0 mph 26.0 mph 77% 0.22 in
10:19 33.7 °F 27.3 °F 29.71 in WNW 6.0 mph 18.0 mph 77% 0.22 in
10:24 33.8 °F 27.0 °F 29.72 in WNW 13.0 mph 24.0 mph 76% 0.22 in
10:29 33.8 °F 27.0 °F 29.72 in WNW 9.0 mph 24.0 mph 76% 0.22 in
10:34 33.8 °F 27.0 °F 29.72 in NW 10.0 mph 19.0 mph 76% 0.22 in
10:39 33.9 °F 27.5 °F 29.72 in NW 10.0 mph 19.0 mph 77% 0.22 in
10:44 33.9 °F 27.5 °F 29.73 in WNW 12.0 mph 19.0 mph 77% 0.22 in
10:50 33.7 °F 26.9 °F 29.73 in WNW 16.0 mph 27.0 mph 76% 0.22 in
10:59 33.9 °F 27.5 °F 29.73 in WNW 14.0 mph 20.0 mph 77% 0.22 in
11:09 33.2 °F 27.1 °F 29.75 in NW 12.0 mph 24.0 mph 78% 0.22 in
11:14 32.8 °F 27.3 °F 29.74 in NW 10.0 mph 22.0 mph 80% 0.22 in
11:19 32.9 °F 27.7 °F 29.75 in NW 10.0 mph 22.0 mph 81% 0.22 in
11:24 33.0 °F 27.8 °F 29.75 in NW 12.0 mph 21.0 mph 81% 0.22 in
11:29 32.9 °F 27.7 °F 29.75 in WNW 12.0 mph 22.0 mph 81% 0.22 in
11:34 32.6 °F 27.7 °F 29.75 in NW 12.0 mph 24.0 mph 82% 0.22 in
11:39 32.8 °F 27.9 °F 29.76 in NW 12.0 mph 24.0 mph 82% 0.22 in
11:44 32.6 °F 27.4 °F 29.76 in WNW 16.0 mph 25.0 mph 81% 0.22 in
11:49 32.4 °F 27.5 °F 29.76 in NW 8.0 mph 25.0 mph 82% 0.22 in
11:54 32.2 °F 27.3 °F 29.76 in WNW 9.0 mph 21.0 mph 82% 0.22 in
11:59 32.0 °F 27.1 °F 29.77 in WNW 11.0 mph 21.0 mph 82% 0.22 in
12:04 32.0 °F 27.1 °F 29.77 in WNW 11.0 mph 21.0 mph 82% 0.22 in
12:09 32.0 °F 27.1 °F 29.77 in WNW 13.0 mph 22.0 mph 82% 0.22 in
12:14 32.0 °F 27.1 °F 29.77 in WNW 12.0 mph 22.0 mph 82% 0.22 in
12:19 32.1 °F 27.2 °F 29.77 in WNW 13.0 mph 22.0 mph 82% 0.22 in
12:24 32.2 °F 27.3 °F 29.78 in WNW 8.0 mph 22.0 mph 82% 0.22 in
12:34 32.4 °F 27.2 °F 29.78 in NW 6.0 mph 16.0 mph 81% 0.22 in
12:39 32.4 °F 26.9 °F 29.78 in WNW 14.0 mph 22.0 mph 80% 0.22 in
12:44 32.6 °F 27.1 °F 29.78 in WNW 9.0 mph 22.0 mph 80% 0.22 in
12:49 32.8 °F 27.3 °F 29.78 in WNW 9.0 mph 19.0 mph 80% 0.22 in
12:54 33.0 °F 27.8 °F 29.78 in NW 7.0 mph 19.0 mph 81% 0.22 in
12:59 33.1 °F 27.9 °F 29.79 in WNW 11.0 mph 20.0 mph 81% 0.23 in
13:04 33.2 °F 27.7 °F 29.80 in NW 10.0 mph 20.0 mph 80% 0.23 in
13:14 33.0 °F 27.8 °F 29.80 in NW 7.0 mph 23.0 mph 81% 0.23 in
13:19 33.2 °F 27.4 °F 29.80 in NW 10.0 mph 18.0 mph 79% 0.24 in
13:24 33.3 °F 27.5 °F 29.81 in WNW 12.0 mph 21.0 mph 79% 0.24 in
13:34 33.9 °F 27.8 °F 29.81 in NW 12.0 mph 21.0 mph 78% 0.25 in
13:39 33.6 °F 27.8 °F 29.81 in NW 6.0 mph 21.0 mph 79% 0.25 in
13:44 33.3 °F 27.2 °F 29.81 in WNW 9.0 mph 16.0 mph 78% 0.25 in
13:49 33.0 °F 27.2 °F 29.82 in WNW 7.0 mph 16.0 mph 79% 0.25 in
13:54 33.0 °F 27.2 °F 29.82 in WNW 9.0 mph 16.0 mph 79% 0.25 in
13:59 33.0 °F 26.6 °F 29.82 in WNW 9.0 mph 16.0 mph 77% 0.25 in
14:04 33.0 °F 26.6 °F 29.82 in WNW 7.0 mph 16.0 mph 77% 0.25 in
14:09 33.0 °F 26.6 °F 29.82 in NW 10.0 mph 17.0 mph 77% 0.25 in
14:14 33.1 °F 26.4 °F 29.83 in WNW 8.0 mph 17.0 mph 76% 0.25 in
14:19 33.1 °F 26.0 °F 29.83 in NW 11.0 mph 19.0 mph 75% 0.26 in
14:24 33.2 °F 26.8 °F 29.83 in NW 4.0 mph 19.0 mph 77% 0.26 in
14:29 33.3 °F 26.2 °F 29.83 in WNW 9.0 mph 21.0 mph 75% 0.26 in
14:34 33.3 °F 26.2 °F 29.83 in NW 7.0 mph 21.0 mph 75% 0.26 in
14:39 33.4 °F 26.7 °F 29.84 in NW 7.0 mph 16.0 mph 76% 0.26 in
14:44 33.4 °F 26.3 °F 29.84 in NW 6.0 mph 18.0 mph 75% 0.26 in
14:49 33.5 °F 26.4 °F 29.84 in NW 8.0 mph 18.0 mph 75% 0.26 in
14:54 33.4 °F 26.3 °F 29.84 in NW 4.0 mph 17.0 mph 75% 0.26 in
14:59 33.4 °F 26.3 °F 29.84 in NW 5.0 mph 17.0 mph 75% 0.26 in
15:04 33.3 °F 25.9 °F 29.84 in WNW 9.0 mph 18.0 mph 74% 0.27 in
15:09 33.2 °F 25.8 °F 29.85 in NNW 8.0 mph 18.0 mph 74% 0.27 in
15:14 33.2 °F 25.8 °F 29.85 in WNW 5.0 mph 16.0 mph 74% 0.27 in
15:19 33.0 °F 25.3 °F 29.85 in NW 10.0 mph 17.0 mph 73% 0.27 in
15:24 32.9 °F 25.2 °F 29.86 in NW 8.0 mph 20.0 mph 73% 0.27 in
15:29 32.9 °F 25.2 °F 29.86 in NW 6.0 mph 20.0 mph 73% 0.27 in
15:34 32.9 °F 25.2 °F 29.86 in NW 4.0 mph 20.0 mph 73% 0.27 in
15:39 33.0 °F 25.3 °F 29.86 in WNW 4.0 mph 17.0 mph 73% 0.27 in
15:44 33.0 °F 25.3 °F 29.86 in NW 4.0 mph 13.0 mph 73% 0.27 in
15:49 33.0 °F 25.3 °F 29.86 in NW 6.0 mph 13.0 mph 73% 0.27 in
15:54 32.9 °F 24.9 °F 29.87 in NW 10.0 mph 15.0 mph 72% 0.27 in
15:59 32.8 °F 25.1 °F 29.87 in NW 7.0 mph 15.0 mph 73% 0.27 in
16:04 32.8 °F 25.1 °F 29.87 in NW 5.0 mph 15.0 mph 73% 0.27 in
16:09 32.7 °F 25.0 °F 29.87 in WNW 7.0 mph 15.0 mph 73% 0.27 in
16:14 32.7 °F 25.0 °F 29.87 in WNW 7.0 mph 14.0 mph 73% 0.27 in
16:19 32.7 °F 25.0 °F 29.87 in NW 9.0 mph 18.0 mph 73% 0.27 in
16:24 32.6 °F 25.2 °F 29.88 in NW 6.0 mph 18.0 mph 74% 0.27 in
16:29 32.6 °F 25.6 °F 29.88 in WNW 7.0 mph 17.0 mph 75% 0.27 in
16:34 32.5 °F 25.8 °F 29.88 in WNW 4.0 mph 15.0 mph 76% 0.27 in
16:39 32.5 °F 25.8 °F 29.89 in WNW 6.0 mph 15.0 mph 76% 0.27 in
16:44 32.4 °F 25.7 °F 29.89 in West 9.0 mph 15.0 mph 76% 0.27 in
16:49 32.3 °F 25.6 °F 29.89 in WNW 8.0 mph 14.0 mph 76% 0.27 in
16:54 32.3 °F 25.9 °F 29.90 in WNW 5.0 mph 14.0 mph 77% 0.27 in
16:59 32.3 °F 25.9 °F 29.90 in WNW 6.0 mph 12.0 mph 77% 0.27 in
17:04 32.3 °F 24.9 °F 29.91 in WNW 11.0 mph 17.0 mph 74% 0.27 in
17:09 32.3 °F 24.9 °F 29.91 in WNW 6.0 mph 17.0 mph 74% 0.27 in
17:14 32.3 °F 25.3 °F 29.91 in NW 4.0 mph 12.0 mph 75% 0.27 in
17:19 32.3 °F 24.9 °F 29.92 in WNW 4.0 mph 10.0 mph 74% 0.27 in
17:24 32.3 °F 24.9 °F 29.92 in WNW 6.0 mph 12.0 mph 74% 0.27 in
17:29 32.3 °F 24.9 °F 29.92 in WNW 9.0 mph 17.0 mph 74% 0.27 in
17:34 32.3 °F 24.6 °F 29.92 in WNW 8.0 mph 17.0 mph 73% 0.27 in
17:39 32.4 °F 24.7 °F 29.92 in WNW 10.0 mph 19.0 mph 73% 0.27 in
17:44 32.5 °F 24.5 °F 29.92 in WNW 9.0 mph 19.0 mph 72% 0.27 in
17:49 32.6 °F 24.6 °F 29.92 in WNW 3.0 mph 14.0 mph 72% 0.27 in
17:54 32.6 °F 24.6 °F 29.93 in WNW 6.0 mph 15.0 mph 72% 0.27 in
17:59 32.7 °F 24.7 °F 29.93 in NW 5.0 mph 15.0 mph 72% 0.27 in
18:04 32.8 °F 24.4 °F 29.93 in NW 7.0 mph 15.0 mph 71% 0.27 in
18:14 32.8 °F 23.8 °F 29.94 in WNW 11.0 mph 23.0 mph 69% 0.27 in
18:19 32.8 °F 24.1 °F 29.94 in NW 7.0 mph 23.0 mph 70% 0.27 in
18:24 32.7 °F 24.0 °F 29.94 in WNW 9.0 mph 18.0 mph 70% 0.27 in
18:29 32.6 °F 23.9 °F 29.94 in WNW 9.0 mph 20.0 mph 70% 0.27 in
18:34 32.6 °F 23.9 °F 29.94 in NNW 8.0 mph 20.0 mph 70% 0.27 in
18:44 32.3 °F 23.3 °F 29.94 in NW 11.0 mph 23.0 mph 69% 0.27 in
18:49 32.3 °F 23.6 °F 29.94 in NW 7.0 mph 22.0 mph 70% 0.27 in
18:54 32.1 °F 23.1 °F 29.94 in NW 10.0 mph 22.0 mph 69% 0.27 in
18:59 32.0 °F 23.0 °F 29.95 in WNW 12.0 mph 24.0 mph 69% 0.27 in
19:04 31.9 °F 22.9 °F 29.95 in NW 8.0 mph 24.0 mph 69% 0.27 in
19:09 31.9 °F 22.9 °F 29.94 in WNW 7.0 mph 17.0 mph 69% 0.27 in
19:14 31.8 °F 22.8 °F 29.95 in WNW 12.0 mph 18.0 mph 69% 0.27 in
19:19 31.8 °F 22.8 °F 29.95 in WNW 12.0 mph 18.0 mph 69% 0.27 in
19:24 31.7 °F 22.7 °F 29.96 in NW 10.0 mph 18.0 mph 69% 0.27 in
19:29 31.6 °F 22.3 °F 29.96 in NW 12.0 mph 23.0 mph 68% 0.27 in
19:34 31.5 °F 22.2 °F 29.96 in NW 9.0 mph 23.0 mph 68% 0.27 in
19:39 31.4 °F 22.1 °F 29.96 in NW 6.0 mph 20.0 mph 68% 0.27 in
19:44 31.3 °F 22.0 °F 29.97 in NW 10.0 mph 21.0 mph 68% 0.27 in
19:49 31.2 °F 21.2 °F 29.97 in NW 9.0 mph 21.0 mph 66% 0.27 in
19:54 31.2 °F 21.5 °F 29.97 in NW 11.0 mph 23.0 mph 67% 0.27 in
19:59 31.1 °F 21.4 °F 29.97 in NW 8.0 mph 23.0 mph 67% 0.27 in
20:04 31.1 °F 21.8 °F 29.98 in NW 8.0 mph 17.0 mph 68% 0.27 in
20:09 31.1 °F 21.4 °F 29.98 in NW 11.0 mph 25.0 mph 67% 0.27 in
20:14 31.1 °F 21.8 °F 29.98 in NNW 5.0 mph 25.0 mph 68% 0.27 in
20:19 31.1 °F 21.4 °F 29.98 in NW 10.0 mph 24.0 mph 67% 0.27 in
20:24 31.1 °F 21.1 °F 29.98 in NW 9.0 mph 22.0 mph 66% 0.27 in
20:29 31.0 °F 21.0 °F 29.99 in NW 7.0 mph 18.0 mph 66% 0.27 in
20:34 31.0 °F 21.0 °F 29.99 in NW 11.0 mph 21.0 mph 66% 0.27 in
20:39 31.1 °F 21.4 °F 29.99 in NW 9.0 mph 21.0 mph 67% 0.27 in
20:44 31.0 °F 21.7 °F 30.00 in NW 10.0 mph 23.0 mph 68% 0.27 in
20:49 30.9 °F 22.3 °F 30.00 in NW 4.0 mph 23.0 mph 70% 0.27 in
20:54 30.7 °F 22.4 °F 30.00 in NW 6.0 mph 16.0 mph 71% 0.27 in
20:59 30.5 °F 22.2 °F 30.00 in NW 8.0 mph 19.0 mph 71% 0.27 in
21:04 30.3 °F 22.4 °F 30.01 in NW 5.0 mph 19.0 mph 72% 0.27 in
21:09 30.3 °F 22.7 °F 30.01 in NNW 3.0 mph 14.0 mph 73% 0.27 in
21:14 30.2 °F 22.3 °F 30.01 in NW 3.0 mph 13.0 mph 72% 0.27 in
21:19 30.2 °F 22.3 °F 30.01 in WNW 4.0 mph 13.0 mph 72% 0.27 in
21:24 30.3 °F 21.7 °F 30.02 in NNW 7.0 mph 18.0 mph 70% 0.27 in
21:34 30.3 °F 22.0 °F 30.02 in NNW 8.0 mph 15.0 mph 71% 0.27 in
21:39 30.3 °F 21.7 °F 30.02 in NW 7.0 mph 16.0 mph 70% 0.27 in
21:44 30.3 °F 22.0 °F 30.02 in NW 9.0 mph 16.0 mph 71% 0.27 in
21:49 30.2 °F 22.3 °F 30.02 in NW 11.0 mph 21.0 mph 72% 0.27 in
21:54 30.0 °F 22.7 °F 30.03 in NNW 8.0 mph 21.0 mph 74% 0.27 in
21:59 29.7 °F 22.8 °F 30.03 in NW 4.0 mph 17.0 mph 75% 0.27 in
22:04 29.7 °F 21.8 °F 30.03 in NNW 8.0 mph 18.0 mph 72% 0.27 in
22:09 29.7 °F 21.5 °F 30.03 in WNW 10.0 mph 20.0 mph 71% 0.27 in
22:14 29.7 °F 21.1 °F 30.03 in NW 4.0 mph 20.0 mph 70% 0.27 in
22:19 29.7 °F 21.1 °F 30.03 in NNW 8.0 mph 21.0 mph 70% 0.27 in
22:24 29.7 °F 21.1 °F 30.03 in NNW 6.0 mph 21.0 mph 70% 0.27 in
22:29 29.6 °F 21.0 °F 30.04 in NNW 6.0 mph 16.0 mph 70% 0.27 in
22:34 29.7 °F 20.4 °F 30.04 in NW 12.0 mph 20.0 mph 68% 0.27 in
22:39 29.7 °F 20.1 °F 30.04 in NW 10.0 mph 23.0 mph 67% 0.27 in
22:44 29.8 °F 20.2 °F 30.05 in NW 10.0 mph 23.0 mph 67% 0.27 in
22:49 29.7 °F 20.1 °F 30.05 in NW 7.0 mph 19.0 mph 67% 0.27 in
22:54 29.7 °F 19.7 °F 30.05 in NNW 10.0 mph 20.0 mph 66% 0.27 in
22:59 29.7 °F 20.1 °F 30.05 in NW 6.0 mph 20.0 mph 67% 0.27 in
23:04 29.6 °F 20.0 °F 30.05 in NNW 9.0 mph 17.0 mph 67% 0.27 in
23:09 29.5 °F 20.2 °F 30.06 in NNW 8.0 mph 17.0 mph 68% 0.27 in
23:14 29.3 °F 20.7 °F 30.06 in NNW 7.0 mph 17.0 mph 70% 0.27 in
23:19 29.1 °F 20.5 °F 30.06 in NW 8.0 mph 18.0 mph 70% 0.27 in
23:24 29.0 °F 20.1 °F 30.06 in NW 11.0 mph 18.0 mph 69% 0.27 in
23:29 29.0 °F 20.1 °F 30.06 in NW 11.0 mph 25.0 mph 69% 0.27 in
23:34 28.9 °F 20.3 °F 30.06 in NW 6.0 mph 25.0 mph 70% 0.27 in
23:39 28.9 °F 20.3 °F 30.06 in NW 6.0 mph 18.0 mph 70% 0.27 in
23:44 28.9 °F 20.3 °F 30.07 in NNW 8.0 mph 19.0 mph 70% 0.27 in
23:54 28.8 °F 20.3 °F 30.07 in NNW 4.0 mph 17.0 mph 70% 0.27 in
23:59 28.8 °F 20.3 °F 30.07 in NW 9.0 mph 18.0 mph 70% 0.27 in
Westford Weather
Compliments of Weather Underground

 
 
Current Radar Loop:

Copyright © WestfordWeather.net 2007-2014. All rights reserved.